Time;durP1;ratioP1;P1;durP2;ratioP2;P2;SDS_P1;SDS_P2;PMS_P1;PMS_P2;Temp;Humidity;BMP_temperature;BMP_pressure;BME280_temperature;BME280_humidity;BME280_pressure;Samples;Min_cycle;Max_cycle;Signal;HPM_P1;HPM_P2
2022/07/21 00:01:15;;;;;;;0.00;0.00;;;;;;;;;;5012913;28;20042;-93
2022/07/21 00:03:41;;;;;;;0.00;0.00;;;;;;;;;;5013404;28;20069;-93
2022/07/21 00:06:07;;;;;;;0.00;0.00;;;;;;;;;;5012814;28;20061;-93
2022/07/21 00:08:33;;;;;;;0.00;0.00;;;;;;;;;;5012970;28;20052;-92
2022/07/21 00:10:59;;;;;;;0.00;0.00;;;;;;;;;;5012498;28;20512;-94
2022/07/21 00:13:25;;;;;;;0.00;0.00;;;;;;;;;;5012434;28;20496;-92
2022/07/21 00:15:51;;;;;;;0.00;0.00;;;;;;;;;;5012469;28;20129;-93
2022/07/21 00:18:18;;;;;;;0.00;0.00;;;;;;;;;;5012791;28;20489;-94
2022/07/21 00:20:44;;;;;;;0.00;0.00;;;;;;;;;;5012067;28;20046;-92
2022/07/21 00:23:16;;;;;;;0.00;0.00;;;;;;;;;;5013107;28;20080;-94
2022/07/21 00:28:18;;;;;;;0.00;0.00;;;;;;;;;;5126689;23;20057;-93
2022/07/21 00:30:45;;;;;;;0.00;0.00;;;;;;;;;;5005809;28;20620;-94
2022/07/21 00:33:11;;;;;;;0.00;0.00;;;;;;;;;;4997004;28;20030;-94
2022/07/21 00:35:43;;;;;;;0.28;0.15;;;;;;;;;;5001182;28;20045;-95
2022/07/21 00:38:09;;;;;;;0.00;0.00;;;;;;;;;;4996537;28;20052;-94
2022/07/21 00:40:37;;;;;;;0.00;0.00;;;;;;;;;;4996078;28;20068;-95
2022/07/21 00:43:03;;;;;;;0.00;0.00;;;;;;;;;;4996328;28;20042;-94
2022/07/21 00:45:29;;;;;;;0.00;0.00;;;;;;;;;;4979732;28;20042;-92
2022/07/21 00:47:55;;;;;;;0.00;0.00;;;;;;;;;;4995652;28;20049;-92
2022/07/21 00:50:21;;;;;;;0.00;0.00;;;;;;;;;;4995338;28;20034;-93
2022/07/21 00:52:48;;;;;;;0.00;0.00;;;;;;;;;;4979483;28;20042;-92
2022/07/21 00:55:18;;;;;;;0.00;0.00;;;;;;;;;;4979091;28;20038;-92
2022/07/21 00:57:45;;;;;;;0.00;0.00;;;;;;;;;;4979681;28;20389;-92
2022/07/21 01:00:14;;;;;;;0.00;0.00;;;;;;;;;;4995146;28;20447;-91
2022/07/21 01:02:40;;;;;;;0.00;0.00;;;;;;;;;;4979294;28;20500;-91
2022/07/21 01:05:12;;;;;;;0.00;0.00;;;;;;;;;;4995086;28;20048;-90
2022/07/21 01:07:38;;;;;;;0.00;0.00;;;;;;;;;;4965908;28;20438;-91
2022/07/21 01:10:04;;;;;;;0.00;0.00;;;;;;;;;;4994933;28;20053;-90
2022/07/21 01:12:30;;;;;;;0.00;0.00;;;;;;;;;;4970404;28;20536;-90
2022/07/21 01:14:56;;;;;;;0.00;0.00;;;;;;;;;;4975544;28;20049;-90
2022/07/21 01:17:23;;;;;;;0.00;0.00;;;;;;;;;;4976016;28;20038;-91
2022/07/21 01:19:49;;;;;;;0.00;0.00;;;;;;;;;;4975370;28;20038;-91
2022/07/21 01:22:15;;;;;;;0.00;0.00;;;;;;;;;;4975582;28;20046;-89
2022/07/21 01:24:41;;;;;;;0.10;0.10;;;;;;;;;;4984248;28;20033;-90
2022/07/21 01:27:07;;;;;;;0.00;0.00;;;;;;;;;;4994744;28;20053;-90
2022/07/21 01:29:33;;;;;;;0.40;0.00;;;;;;;;;;4995014;28;20050;-91
2022/07/21 01:31:59;;;;;;;0.00;0.00;;;;;;;;;;4995198;28;20069;-90
2022/07/21 01:34:25;;;;;;;0.00;0.00;;;;;;;;;;4998480;28;20084;-90
2022/07/21 01:36:51;;;;;;;0.00;0.00;;;;;;;;;;4998377;28;20722;-90
2022/07/21 01:42:02;;;;;;;0.00;0.00;;;;;;;;;;4998296;28;20072;-91
2022/07/21 01:44:28;;;;;;;0.00;0.00;;;;;;;;;;4982408;28;20073;-92
2022/07/21 01:46:55;;;;;;;0.00;0.00;;;;;;;;;;4998415;28;20049;-91
2022/07/21 01:49:21;;;;;;;0.00;0.00;;;;;;;;;;4982050;28;20042;-91
2022/07/21 01:51:47;;;;;;;0.00;0.00;;;;;;;;;;4997979;28;20045;-90
2022/07/21 01:54:13;;;;;;;0.00;0.00;;;;;;;;;;4998357;28;20046;-91
2022/07/21 01:56:40;;;;;;;0.00;0.00;;;;;;;;;;4981386;28;20042;-92
2022/07/21 01:59:06;;;;;;;0.00;0.00;;;;;;;;;;4962612;28;20466;-92
2022/07/21 02:01:32;;;;;;;0.00;0.00;;;;;;;;;;4978511;28;20049;-93
2022/07/21 02:04:00;;;;;;;0.00;0.00;;;;;;;;;;4978907;28;20121;-92
2022/07/21 02:06:26;;;;;;;0.00;0.00;;;;;;;;;;4979163;28;20149;-94
2022/07/21 02:08:52;;;;;;;0.00;0.00;;;;;;;;;;4962768;28;20046;-91
2022/07/21 02:11:19;;;;;;;0.00;0.00;;;;;;;;;;4962228;28;20046;-92
2022/07/21 02:13:45;;;;;;;0.00;0.00;;;;;;;;;;4978500;28;20442;-91
2022/07/21 02:16:11;;;;;;;0.00;0.00;;;;;;;;;;4962066;28;20133;-92
2022/07/21 02:18:38;;;;;;;0.10;0.10;;;;;;;;;;4962706;28;20116;-92
2022/07/21 02:21:04;;;;;;;0.00;0.00;;;;;;;;;;4962910;28;20042;-91
2022/07/21 02:23:30;;;;;;;0.00;0.00;;;;;;;;;;4995958;28;20073;-90
2022/07/21 02:25:57;;;;;;;0.00;0.00;;;;;;;;;;4961768;28;20038;-90
2022/07/21 02:28:23;;;;;;;0.00;0.00;;;;;;;;;;4978039;28;20555;-89
2022/07/21 02:30:50;;;;;;;0.00;0.00;;;;;;;;;;4977775;28;20042;-89
2022/07/21 02:33:17;;;;;;;0.00;0.00;;;;;;;;;;4978222;28;20046;-90
2022/07/21 02:35:43;;;;;;;0.00;0.00;;;;;;;;;;4961562;28;20038;-90
2022/07/21 02:38:09;;;;;;;0.00;0.00;;;;;;;;;;4978299;28;20042;-91
2022/07/21 02:40:35;;;;;;;0.00;0.00;;;;;;;;;;4977790;28;20527;-90
2022/07/21 02:43:01;;;;;;;0.00;0.00;;;;;;;;;;4977799;28;20042;-91
2022/07/21 02:45:27;;;;;;;0.00;0.00;;;;;;;;;;4987289;28;20182;-90
2022/07/21 02:47:54;;;;;;;0.00;0.00;;;;;;;;;;4997286;28;20244;-89
2022/07/21 02:50:21;;;;;;;0.00;0.00;;;;;;;;;;4997115;28;20042;-89
2022/07/21 02:52:47;;;;;;;0.00;0.00;;;;;;;;;;4997071;28;20070;-89
2022/07/21 02:55:14;;;;;;;0.00;0.00;;;;;;;;;;4997229;28;20049;-90
2022/07/21 02:57:40;;;;;;;0.00;0.00;;;;;;;;;;4996623;28;20077;-90
2022/07/21 03:00:06;;;;;;;0.10;0.10;;;;;;;;;;4996762;28;20088;-90
2022/07/21 03:02:32;;;;;;;0.00;0.00;;;;;;;;;;4996659;28;20049;-90
2022/07/21 03:04:59;;;;;;;0.00;0.00;;;;;;;;;;4997155;28;20038;-90
2022/07/21 03:07:25;;;;;;;0.00;0.00;;;;;;;;;;4996529;28;20481;-91
2022/07/21 03:09:51;;;;;;;0.00;0.00;;;;;;;;;;4996740;28;20038;-89
2022/07/21 03:12:17;;;;;;;0.00;0.00;;;;;;;;;;4996725;28;20080;-89
2022/07/21 03:14:43;;;;;;;0.00;0.00;;;;;;;;;;4996679;28;20489;-91
2022/07/21 03:17:09;;;;;;;0.00;0.00;;;;;;;;;;4980438;28;20037;-90
2022/07/21 03:19:35;;;;;;;0.00;0.00;;;;;;;;;;4996504;28;20124;-91
2022/07/21 03:22:01;;;;;;;0.05;0.00;;;;;;;;;;4980115;28;20038;-90
2022/07/21 03:24:27;;;;;;;0.00;0.00;;;;;;;;;;4996564;28;20124;-90
2022/07/21 03:26:53;;;;;;;0.00;0.00;;;;;;;;;;4996296;28;20489;-90
2022/07/21 03:29:19;;;;;;;0.00;0.00;;;;;;;;;;4980156;28;20512;-91
2022/07/21 03:31:45;;;;;;;0.00;0.00;;;;;;;;;;4996123;28;20045;-90
2022/07/21 03:34:11;;;;;;;0.00;0.00;;;;;;;;;;4996281;28;20397;-90
2022/07/21 03:36:37;;;;;;;0.00;0.00;;;;;;;;;;4996160;28;20042;-90
2022/07/21 03:39:03;;;;;;;0.00;0.00;;;;;;;;;;4996355;28;20042;-90
2022/07/21 03:41:29;;;;;;;0.00;0.00;;;;;;;;;;4995861;28;20042;-89
2022/07/21 03:43:55;;;;;;;0.00;0.00;;;;;;;;;;4996273;28;20041;-89
2022/07/21 03:46:21;;;;;;;0.00;0.00;;;;;;;;;;4996160;28;20183;-90
2022/07/21 03:48:47;;;;;;;0.00;0.00;;;;;;;;;;4996381;28;20486;-90
2022/07/21 03:51:13;;;;;;;0.00;0.00;;;;;;;;;;4979533;28;20045;-90
2022/07/21 03:53:39;;;;;;;0.00;0.00;;;;;;;;;;4996025;28;20049;-90
2022/07/21 03:56:05;;;;;;;0.00;0.00;;;;;;;;;;4995087;28;20402;-89
2022/07/21 03:58:31;;;;;;;0.15;0.03;;;;;;;;;;4995611;28;20050;-89
2022/07/21 04:00:57;;;;;;;0.00;0.00;;;;;;;;;;4995750;28;20037;-89
2022/07/21 04:03:24;;;;;;;0.00;0.00;;;;;;;;;;4995759;28;20068;-90
2022/07/21 04:05:49;;;;;;;0.00;0.00;;;;;;;;;;4995994;28;20038;-90
2022/07/21 04:08:15;;;;;;;0.00;0.00;;;;;;;;;;4979432;28;20497;-89
2022/07/21 04:10:42;;;;;;;0.00;0.00;;;;;;;;;;4995579;28;20041;-89
2022/07/21 04:13:11;;;;;;;0.00;0.00;;;;;;;;;;4995875;28;20038;-89
2022/07/21 04:15:38;;;;;;;0.00;0.00;;;;;;;;;;4995665;28;20069;-89
2022/07/21 04:18:04;;;;;;;0.43;0.10;;;;;;;;;;4995338;28;20112;-89
2022/07/21 04:20:31;;;;;;;0.00;0.00;;;;;;;;;;4996079;28;20437;-88
2022/07/21 04:22:57;;;;;;;0.00;0.00;;;;;;;;;;4995416;28;20084;-89
2022/07/21 04:25:23;;;;;;;0.00;0.00;;;;;;;;;;4992256;28;20065;-88
2022/07/21 04:27:49;;;;;;;0.15;0.15;;;;;;;;;;4975742;28;20065;-88
2022/07/21 04:30:17;;;;;;;0.00;0.00;;;;;;;;;;4960006;28;20137;-89
2022/07/21 04:32:43;;;;;;;0.20;0.05;;;;;;;;;;4975834;28;20097;-89
2022/07/21 04:35:09;;;;;;;0.00;0.00;;;;;;;;;;4976110;28;20042;-89
2022/07/21 04:37:36;;;;;;;0.30;0.00;;;;;;;;;;4975705;28;20137;-89
2022/07/21 04:40:03;;;;;;;0.00;0.00;;;;;;;;;;4975841;28;20057;-89
2022/07/21 04:42:29;;;;;;;0.00;0.00;;;;;;;;;;4975908;28;20034;-90
2022/07/21 04:44:55;;;;;;;0.00;0.00;;;;;;;;;;4959828;28;20478;-89
2022/07/21 04:47:21;;;;;;;0.00;0.00;;;;;;;;;;4959593;28;20049;-89
2022/07/21 04:49:47;;;;;;;0.00;0.00;;;;;;;;;;4959872;28;20137;-89
2022/07/21 04:52:13;;;;;;;0.15;0.00;;;;;;;;;;4975583;28;20137;-88
2022/07/21 04:54:39;;;;;;;0.00;0.00;;;;;;;;;;4975752;28;20049;-89
2022/07/21 04:57:05;;;;;;;0.00;0.00;;;;;;;;;;4975659;28;20481;-89
2022/07/21 04:59:32;;;;;;;0.00;0.00;;;;;;;;;;4959958;28;20101;-89
2022/07/21 05:01:58;;;;;;;0.00;0.00;;;;;;;;;;4959170;28;20494;-89
2022/07/21 05:04:25;;;;;;;0.00;0.00;;;;;;;;;;4975751;28;20045;-89
2022/07/21 05:06:51;;;;;;;0.00;0.00;;;;;;;;;;4975873;28;20041;-88
2022/07/21 05:09:17;;;;;;;0.00;0.00;;;;;;;;;;4979473;28;20125;-90
2022/07/21 05:11:43;;;;;;;0.00;0.00;;;;;;;;;;4979632;28;20038;-90
2022/07/21 05:14:09;;;;;;;0.00;0.00;;;;;;;;;;4987683;28;20485;-89
2022/07/21 05:16:35;;;;;;;0.00;0.00;;;;;;;;;;4998905;28;20048;-89
2022/07/21 05:19:01;;;;;;;0.00;0.00;;;;;;;;;;4998891;28;20042;-90
2022/07/21 05:21:27;;;;;;;0.00;0.00;;;;;;;;;;4982638;28;20512;-88
2022/07/21 05:23:53;;;;;;;0.00;0.00;;;;;;;;;;4998643;28;20070;-88
2022/07/21 05:26:19;;;;;;;0.00;0.00;;;;;;;;;;4998473;28;20064;-89
2022/07/21 05:28:45;;;;;;;0.00;0.00;;;;;;;;;;4998553;28;20052;-89
2022/07/21 05:31:11;;;;;;;0.00;0.00;;;;;;;;;;4982644;28;20431;-88
2022/07/21 05:33:37;;;;;;;0.00;0.00;;;;;;;;;;4998810;28;20077;-89
2022/07/21 05:36:04;;;;;;;0.00;0.00;;;;;;;;;;4998912;28;20216;-89
2022/07/21 05:38:30;;;;;;;0.28;0.10;;;;;;;;;;4998235;28;20099;-89
2022/07/21 05:40:59;;;;;;;0.00;0.00;;;;;;;;;;4998283;28;20092;-88
2022/07/21 05:43:26;;;;;;;0.00;0.00;;;;;;;;;;4982442;28;20077;-89
2022/07/21 05:45:52;;;;;;;0.00;0.00;;;;;;;;;;4998562;28;20104;-88
2022/07/21 05:48:18;;;;;;;0.00;0.00;;;;;;;;;;4998470;28;20458;-88
2022/07/21 05:50:44;;;;;;;0.00;0.00;;;;;;;;;;4998123;28;20069;-87
2022/07/21 05:53:10;;;;;;;0.63;0.10;;;;;;;;;;4998101;28;20041;-87
2022/07/21 05:55:36;;;;;;;0.00;0.00;;;;;;;;;;4982030;28;20050;-88
2022/07/21 05:58:02;;;;;;;0.00;0.00;;;;;;;;;;4997957;28;20044;-89
2022/07/21 06:00:28;;;;;;;0.00;0.00;;;;;;;;;;4997969;28;20516;-89
2022/07/21 06:02:54;;;;;;;0.05;0.03;;;;;;;;;;4997880;28;20046;-89
2022/07/21 06:05:20;;;;;;;0.00;0.00;;;;;;;;;;4994889;28;20046;-90
2022/07/21 06:07:48;;;;;;;0.00;0.00;;;;;;;;;;4962424;28;20053;-88
2022/07/21 06:10:14;;;;;;;0.00;0.00;;;;;;;;;;4962337;28;20482;-88
2022/07/21 06:12:40;;;;;;;0.00;0.00;;;;;;;;;;4978286;28;20047;-88
2022/07/21 06:15:06;;;;;;;0.00;0.00;;;;;;;;;;4978410;28;20042;-88
2022/07/21 06:17:38;;;;;;;0.00;0.00;;;;;;;;;;4978678;28;20581;-88
2022/07/21 06:20:05;;;;;;;0.00;0.00;;;;;;;;;;4977384;28;20378;-89
2022/07/21 06:22:31;;;;;;;0.00;0.00;;;;;;;;;;4962130;28;20042;-88
2022/07/21 06:24:57;;;;;;;0.00;0.00;;;;;;;;;;4980468;28;20034;-91
2022/07/21 06:27:23;;;;;;;0.00;0.00;;;;;;;;;;5010955;28;20145;-88
2022/07/21 06:29:49;;;;;;;0.00;0.00;;;;;;;;;;5010643;28;20052;-88
2022/07/21 06:32:15;;;;;;;0.00;0.00;;;;;;;;;;5011075;28;20046;-89
2022/07/21 06:34:41;;;;;;;0.00;0.00;;;;;;;;;;5010709;28;20049;-89
2022/07/21 06:37:07;;;;;;;0.00;0.00;;;;;;;;;;5010794;28;20053;-88
2022/07/21 06:39:33;;;;;;;0.00;0.00;;;;;;;;;;5010844;28;20042;-89
2022/07/21 06:41:59;;;;;;;0.00;0.00;;;;;;;;;;5010767;28;20163;-89
2022/07/21 06:44:25;;;;;;;0.00;0.00;;;;;;;;;;5010560;28;20124;-89
2022/07/21 06:46:51;;;;;;;0.00;0.00;;;;;;;;;;5011032;28;20116;-90
2022/07/21 06:49:17;;;;;;;0.00;0.00;;;;;;;;;;5010450;28;20056;-89
2022/07/21 06:51:43;;;;;;;0.00;0.00;;;;;;;;;;5010656;28;20042;-89
2022/07/21 06:54:09;;;;;;;0.00;0.00;;;;;;;;;;5009966;28;20095;-90
2022/07/21 06:56:35;;;;;;;0.00;0.00;;;;;;;;;;5010378;28;20485;-88
2022/07/21 06:59:01;;;;;;;0.00;0.00;;;;;;;;;;5022925;28;20049;-87
2022/07/21 07:01:27;;;;;;;0.00;0.00;;;;;;;;;;5010183;28;20485;-87
2022/07/21 07:03:53;;;;;;;0.00;0.00;;;;;;;;;;5010115;28;20057;-87
2022/07/21 07:06:21;;;;;;;0.00;0.00;;;;;;;;;;5010504;28;20072;-87
2022/07/21 07:08:47;;;;;;;0.00;0.00;;;;;;;;;;4995822;28;20100;-88
2022/07/21 07:11:13;;;;;;;0.32;0.25;;;;;;;;;;5012682;28;20038;-87
2022/07/21 07:13:39;;;;;;;0.00;0.00;;;;;;;;;;5012884;28;20119;-87
2022/07/21 07:16:05;;;;;;;0.05;0.03;;;;;;;;;;5012935;28;20050;-88
2022/07/21 07:18:31;;;;;;;0.00;0.00;;;;;;;;;;5012686;28;20057;-89
2022/07/21 07:20:57;;;;;;;0.00;0.00;;;;;;;;;;5013005;28;20042;-88
2022/07/21 07:23:23;;;;;;;0.85;0.25;;;;;;;;;;5012558;28;20441;-88
2022/07/21 07:25:50;;;;;;;0.00;0.00;;;;;;;;;;5013299;28;20077;-88
2022/07/21 07:28:16;;;;;;;0.00;0.00;;;;;;;;;;5012667;28;20077;-90
2022/07/21 07:30:42;;;;;;;0.00;0.00;;;;;;;;;;5012541;28;20034;-90
2022/07/21 07:33:08;;;;;;;0.00;0.00;;;;;;;;;;5013550;28;20045;-92
2022/07/21 07:35:34;;;;;;;0.10;0.00;;;;;;;;;;5012940;28;20434;-90
2022/07/21 07:38:00;;;;;;;0.00;0.00;;;;;;;;;;5012562;28;20050;-90
2022/07/21 07:40:26;;;;;;;0.00;0.00;;;;;;;;;;5012554;28;20046;-89
2022/07/21 07:42:52;;;;;;;0.00;0.00;;;;;;;;;;5012507;28;20122;-90
2022/07/21 07:45:18;;;;;;;0.00;0.00;;;;;;;;;;4993258;28;20482;-89
2022/07/21 07:47:45;;;;;;;0.35;0.13;;;;;;;;;;4960791;28;20074;-89
2022/07/21 07:50:12;;;;;;;0.00;0.00;;;;;;;;;;4976408;28;20128;-90
2022/07/21 07:52:38;;;;;;;0.00;0.00;;;;;;;;;;4976581;28;20132;-91
2022/07/21 07:55:07;;;;;;;0.00;0.00;;;;;;;;;;4976410;28;20042;-91
2022/07/21 07:57:34;;;;;;;0.00;0.00;;;;;;;;;;4960930;28;20046;-92
2022/07/21 08:00:00;;;;;;;0.00;0.00;;;;;;;;;;4960098;28;20046;-90
2022/07/21 08:02:26;;;;;;;0.00;0.00;;;;;;;;;;4976654;28;20422;-90
2022/07/21 08:04:52;;;;;;;0.00;0.00;;;;;;;;;;4977006;28;20073;-92
2022/07/21 08:07:18;;;;;;;0.10;0.05;;;;;;;;;;4976560;28;20388;-93
2022/07/21 08:09:44;;;;;;;0.00;0.00;;;;;;;;;;4976265;28;20053;-92
2022/07/21 08:12:10;;;;;;;0.00;0.00;;;;;;;;;;4978207;28;20042;-93
2022/07/21 08:14:36;;;;;;;0.00;0.00;;;;;;;;;;4977292;28;20053;-91
2022/07/21 08:17:02;;;;;;;0.00;0.00;;;;;;;;;;4977100;28;20108;-91
2022/07/21 08:19:28;;;;;;;0.00;0.00;;;;;;;;;;4976214;28;20046;-91
2022/07/21 08:21:54;;;;;;;0.00;0.00;;;;;;;;;;4976517;28;20316;-91
2022/07/21 08:24:20;;;;;;;0.00;0.00;;;;;;;;;;4960952;28;20034;-92
2022/07/21 08:26:46;;;;;;;0.00;0.00;;;;;;;;;;4967974;28;20510;-89
2022/07/21 08:29:12;;;;;;;0.00;0.00;;;;;;;;;;4954791;29;20058;-92
2022/07/21 08:31:38;;;;;;;0.00;0.00;;;;;;;;;;4955468;28;20039;-95
2022/07/21 08:34:07;;;;;;;0.00;0.00;;;;;;;;;;4965354;28;20050;-93
2022/07/21 08:36:33;;;;;;;0.00;0.00;;;;;;;;;;4957588;28;20053;-91
2022/07/21 08:38:59;;;;;;;0.00;0.00;;;;;;;;;;4973281;28;20043;-85
2022/07/21 08:41:25;;;;;;;0.00;0.00;;;;;;;;;;4971443;28;20482;-92
2022/07/21 08:43:51;;;;;;;0.00;0.00;;;;;;;;;;4972537;28;20080;-90
2022/07/21 08:46:18;;;;;;;0.05;0.05;;;;;;;;;;4972392;28;20039;-90
2022/07/21 08:48:44;;;;;;;0.00;0.00;;;;;;;;;;4973120;28;20069;-91
2022/07/21 08:51:11;;;;;;;0.20;0.20;;;;;;;;;;4972646;28;20043;-91
2022/07/21 08:53:37;;;;;;;0.13;0.00;;;;;;;;;;4973986;28;20043;-90
2022/07/21 08:56:03;;;;;;;0.22;0.08;;;;;;;;;;4967110;28;20085;-90
2022/07/21 08:58:29;;;;;;;0.00;0.00;;;;;;;;;;4954392;29;20070;-89
2022/07/21 09:00:55;;;;;;;0.00;0.00;;;;;;;;;;4953245;28;20109;-90
2022/07/21 09:03:22;;;;;;;0.38;0.10;;;;;;;;;;4953495;29;20051;-91
2022/07/21 09:06:07;;;;;;;0.00;0.00;;;;;;;;;;4953376;29;20050;-92
2022/07/21 09:08:38;;;;;;;0.00;0.00;;;;;;;;;;4954536;29;20492;-90
2022/07/21 09:11:12;;;;;;;0.00;0.00;;;;;;;;;;4954217;28;20483;-91
2022/07/21 09:13:38;;;;;;;0.00;0.00;;;;;;;;;;4954797;29;20043;-91
2022/07/21 09:16:04;;;;;;;0.00;0.00;;;;;;;;;;4953024;29;20043;-90
2022/07/21 09:18:30;;;;;;;0.00;0.00;;;;;;;;;;4953446;29;20039;-90
2022/07/21 09:20:58;;;;;;;0.00;0.00;;;;;;;;;;4952936;28;20058;-90
2022/07/21 09:23:25;;;;;;;0.20;0.00;;;;;;;;;;4960095;28;20415;-91
2022/07/21 09:25:52;;;;;;;0.10;0.00;;;;;;;;;;4972315;28;20043;-92
2022/07/21 09:28:25;;;;;;;0.00;0.00;;;;;;;;;;4972440;28;20061;-92
2022/07/21 09:30:57;;;;;;;0.00;0.00;;;;;;;;;;4972116;28;20050;-90
2022/07/21 09:33:32;;;;;;;0.00;0.00;;;;;;;;;;4972613;28;20043;-93
2022/07/21 09:35:58;;;;;;;0.00;0.00;;;;;;;;;;4972253;28;20046;-93
2022/07/21 09:38:25;;;;;;;0.00;0.00;;;;;;;;;;4972631;28;20046;-90
2022/07/21 09:40:51;;;;;;;0.63;0.08;;;;;;;;;;4972642;28;20101;-89
2022/07/21 09:43:34;;;;;;;0.00;0.00;;;;;;;;;;4973676;28;20043;-92
2022/07/21 09:46:01;;;;;;;0.00;0.00;;;;;;;;;;4972164;28;20051;-91
2022/07/21 09:48:31;;;;;;;0.00;0.00;;;;;;;;;;4972608;28;20081;-91
2022/07/21 09:50:57;;;;;;;0.00;0.00;;;;;;;;;;4973024;28;20082;-91
2022/07/21 09:53:23;;;;;;;0.00;0.00;;;;;;;;;;4972605;28;20102;-94
2022/07/21 09:55:50;;;;;;;0.00;0.00;;;;;;;;;;4975252;28;20041;-92
2022/07/21 09:58:16;;;;;;;0.00;0.00;;;;;;;;;;4976797;28;20074;-92
2022/07/21 10:00:42;;;;;;;0.00;0.00;;;;;;;;;;4975364;28;20071;-92
2022/07/21 10:03:09;;;;;;;0.00;0.00;;;;;;;;;;4977093;28;20058;-92
2022/07/21 10:05:35;;;;;;;0.00;0.00;;;;;;;;;;4975602;28;20390;-93
2022/07/21 10:08:02;;;;;;;0.00;0.00;;;;;;;;;;4976966;28;20397;-91
2022/07/21 10:10:28;;;;;;;0.17;0.15;;;;;;;;;;4975771;28;20053;-90
2022/07/21 10:12:54;;;;;;;0.00;0.00;;;;;;;;;;4975403;28;20122;-93
2022/07/21 10:15:20;;;;;;;0.00;0.00;;;;;;;;;;4976441;28;20137;-93
2022/07/21 10:17:49;;;;;;;0.00;0.00;;;;;;;;;;4959298;28;20109;-92
2022/07/21 10:20:28;;;;;;;0.00;0.00;;;;;;;;;;4974995;28;20097;-90
2022/07/21 10:22:54;;;;;;;0.35;0.20;;;;;;;;;;4975175;28;20047;-91
2022/07/21 10:25:20;;;;;;;0.00;0.00;;;;;;;;;;4974947;28;20410;-91
2022/07/21 10:28:05;;;;;;;0.00;0.00;;;;;;;;;;4974906;28;20054;-90
2022/07/21 10:30:38;;;;;;;0.10;0.10;;;;;;;;;;4977554;28;20051;-89
2022/07/21 10:33:04;;;;;;;0.00;0.00;;;;;;;;;;4961847;28;20146;-91
2022/07/21 10:35:31;;;;;;;0.38;0.10;;;;;;;;;;4975136;28;20126;-92
2022/07/21 10:37:58;;;;;;;0.00;0.00;;;;;;;;;;4976814;28;20172;-92
2022/07/21 10:40:24;;;;;;;0.55;0.00;;;;;;;;;;4975929;28;20050;-92
2022/07/21 10:42:59;;;;;;;0.30;0.00;;;;;;;;;;4976794;28;20047;-92
2022/07/21 10:45:25;;;;;;;;;;;;;;;;;;4975902;28;20046;-91
2022/07/21 10:47:51;;;;;;;0.00;0.00;;;;;;;;;;4976621;28;19924;-94
2022/07/21 10:50:30;;;;;;;0.00;0.00;;;;;;;;;;4978099;28;20039;-90
2022/07/21 10:53:04;;;;;;;0.20;0.10;;;;;;;;;;4978243;28;20042;-94
2022/07/21 10:55:31;;;;;;;0.00;0.00;;;;;;;;;;4974587;28;20050;-91
2022/07/21 10:58:14;;;;;;;0.00;0.00;;;;;;;;;;4976206;28;20364;-94
2022/07/21 11:00:44;;;;;;;0.10;0.05;;;;;;;;;;4974574;28;20073;-94
2022/07/21 11:03:16;;;;;;;0.00;0.00;;;;;;;;;;4974663;28;20035;-93
2022/07/21 11:06:01;;;;;;;0.00;0.00;;;;;;;;;;4974534;28;20046;-92
2022/07/21 11:08:31;;;;;;;0.00;0.00;;;;;;;;;;4960667;28;20043;-89
2022/07/21 11:11:06;;;;;;;0.00;0.00;;;;;;;;;;4974841;28;20479;-93
2022/07/21 11:13:52;;;;;;;0.00;0.00;;;;;;;;;;4974936;28;20053;-93
2022/07/21 11:16:18;;;;;;;0.00;0.00;;;;;;;;;;4978339;28;20402;-94
2022/07/21 11:18:44;;;;;;;1.20;0.30;;;;;;;;;;4974527;28;20054;-91
2022/07/21 11:21:14;;;;;;;0.30;0.22;;;;;;;;;;4975751;28;20093;-92
2022/07/21 11:23:48;;;;;;;0.10;0.10;;;;;;;;;;4974882;28;20073;-93
2022/07/21 11:26:15;;;;;;;0.30;0.00;;;;;;;;;;4977357;28;20035;-90
2022/07/21 11:28:42;;;;;;;0.00;0.00;;;;;;;;;;5014525;28;20092;-90
2022/07/21 11:31:16;;;;;;;0.00;0.00;;;;;;;;;;4996265;28;20042;-92
2022/07/21 11:33:43;;;;;;;0.00;0.00;;;;;;;;;;4996822;28;20042;-93
2022/07/21 11:36:09;;;;;;;0.00;0.00;;;;;;;;;;4996297;28;20288;-91
2022/07/21 11:38:35;;;;;;;0.00;0.00;;;;;;;;;;4996878;28;20049;-92
2022/07/21 11:41:14;;;;;;;0.00;0.00;;;;;;;;;;4996381;28;20512;-93
2022/07/21 11:43:44;;;;;;;0.00;0.00;;;;;;;;;;4980730;28;20478;-94
2022/07/21 11:46:10;;;;;;;0.00;0.00;;;;;;;;;;4996863;28;20132;-93
2022/07/21 11:48:36;;;;;;;0.00;0.00;;;;;;;;;;5016129;28;20469;-88
2022/07/21 11:51:03;;;;;;;0.00;0.00;;;;;;;;;;4996418;28;20045;-94
2022/07/21 11:53:32;;;;;;;0.52;0.10;;;;;;;;;;4998456;28;20044;-90
2022/07/21 11:55:58;;;;;;;0.00;0.00;;;;;;;;;;5014612;28;20132;-92
2022/07/21 11:58:24;;;;;;;0.00;0.00;;;;;;;;;;4996889;28;20363;-89
2022/07/21 12:01:04;;;;;;;0.10;0.00;;;;;;;;;;4980539;28;20038;-93
2022/07/21 12:03:30;;;;;;;0.00;0.00;;;;;;;;;;4996889;28;20077;-86
2022/07/21 12:05:56;;;;;;;0.00;0.00;;;;;;;;;;4996372;28;20085;-90
2022/07/21 12:08:23;;;;;;;0.00;0.00;;;;;;;;;;4995840;28;20045;-92
2022/07/21 12:10:49;;;;;;;0.00;0.00;;;;;;;;;;4995942;28;20129;-90
2022/07/21 12:13:15;;;;;;;0.00;0.00;;;;;;;;;;5013440;28;20084;-90
2022/07/21 12:15:41;;;;;;;0.00;0.00;;;;;;;;;;4995844;28;20081;-91
2022/07/21 12:18:09;;;;;;;0.00;0.00;;;;;;;;;;4995249;28;20056;-93
2022/07/21 12:20:40;;;;;;;0.10;0.00;;;;;;;;;;4995880;28;20060;-93
2022/07/21 12:23:23;;;;;;;0.00;0.00;;;;;;;;;;4996649;28;20042;-93
2022/07/21 12:25:49;;;;;;;0.00;0.00;;;;;;;;;;4995678;28;20046;-92
2022/07/21 12:28:15;;;;;;;0.00;0.00;;;;;;;;;;4998056;28;20049;-94
2022/07/21 12:30:44;;;;;;;0.00;0.00;;;;;;;;;;4997385;28;20495;-89
2022/07/21 12:33:13;;;;;;;0.00;0.00;;;;;;;;;;4997852;28;20042;-92
2022/07/21 12:35:40;;;;;;;0.00;0.00;;;;;;;;;;4997294;28;20046;-92
2022/07/21 12:38:10;;;;;;;0.00;0.00;;;;;;;;;;4980976;28;20045;-93
2022/07/21 12:40:37;;;;;;;0.00;0.00;;;;;;;;;;4997925;28;20405;-90
2022/07/21 12:43:04;;;;;;;0.00;0.00;;;;;;;;;;4996439;28;20038;-92
2022/07/21 12:45:32;;;;;;;0.00;0.00;;;;;;;;;;4999303;28;20100;-96
2022/07/21 12:48:07;;;;;;;0.00;0.00;;;;;;;;;;4981580;28;20124;-94
2022/07/21 12:50:33;;;;;;;0.05;0.05;;;;;;;;;;4995787;28;20046;-91
2022/07/21 12:53:00;;;;;;;0.00;0.00;;;;;;;;;;4995059;28;20054;-90
2022/07/21 12:55:26;;;;;;;0.00;0.00;;;;;;;;;;4979596;28;20053;-92
2022/07/21 12:57:52;;;;;;;0.00;0.00;;;;;;;;;;4986781;28;20505;-91
2022/07/21 13:00:18;;;;;;;0.00;0.00;;;;;;;;;;4976003;28;20050;-91
2022/07/21 13:02:51;;;;;;;0.00;0.00;;;;;;;;;;4959475;28;20406;-91
2022/07/21 13:05:17;;;;;;;0.00;0.00;;;;;;;;;;4975808;28;20042;-91
2022/07/21 13:07:43;;;;;;;0.20;0.20;;;;;;;;;;4975671;28;20394;-90
2022/07/21 13:10:10;;;;;;;0.00;0.00;;;;;;;;;;4975665;28;20054;-90
2022/07/21 13:12:36;;;;;;;0.00;0.00;;;;;;;;;;4975457;28;20054;-91
2022/07/21 13:15:02;;;;;;;0.08;0.00;;;;;;;;;;4959532;28;20046;-91
2022/07/21 13:17:28;;;;;;;0.00;0.00;;;;;;;;;;4975412;28;20128;-91
2022/07/21 13:19:54;;;;;;;0.00;0.00;;;;;;;;;;4975562;28;20522;-92
2022/07/21 13:22:20;;;;;;;0.00;0.00;;;;;;;;;;4959576;28;20042;-92
2022/07/21 13:24:45;;;;;;;0.00;0.00;;;;;;;;;;4975682;28;20406;-90
2022/07/21 13:27:11;;;;;;;0.00;0.00;;;;;;;;;;4975334;28;20058;-91
2022/07/21 13:29:37;;;;;;;0.00;0.00;;;;;;;;;;4962263;28;20046;-90
2022/07/21 13:32:04;;;;;;;0.00;0.00;;;;;;;;;;4979227;28;20052;-92
2022/07/21 13:34:30;;;;;;;0.10;0.00;;;;;;;;;;4994779;28;20042;-89
2022/07/21 13:36:56;;;;;;;0.00;0.00;;;;;;;;;;4979012;28;20593;-89
2022/07/21 13:39:26;;;;;;;0.00;0.00;;;;;;;;;;4962791;28;20046;-89
2022/07/21 13:41:52;;;;;;;0.00;0.00;;;;;;;;;;4963060;28;20437;-89
2022/07/21 13:44:18;;;;;;;0.00;0.00;;;;;;;;;;4978885;28;20463;-89
2022/07/21 13:46:44;;;;;;;0.20;0.10;;;;;;;;;;4962782;28;20042;-90
2022/07/21 13:49:10;;;;;;;0.60;0.60;;;;;;;;;;4978765;28;20042;-89
2022/07/21 13:51:36;;;;;;;0.00;0.00;;;;;;;;;;4978759;28;20133;-90
2022/07/21 13:54:03;;;;;;;0.00;0.00;;;;;;;;;;4962679;28;20105;-89
2022/07/21 13:56:29;;;;;;;0.22;0.00;;;;;;;;;;4979018;28;20136;-89
2022/07/21 13:58:55;;;;;;;0.00;0.00;;;;;;;;;;4978558;28;20482;-89
2022/07/21 14:01:22;;;;;;;0.00;0.00;;;;;;;;;;4963074;28;20445;-89
2022/07/21 14:03:49;;;;;;;0.00;0.00;;;;;;;;;;4978561;28;20097;-89
2022/07/21 14:06:15;;;;;;;0.00;0.00;;;;;;;;;;4979016;28;20035;-89
2022/07/21 14:08:41;;;;;;;0.00;0.00;;;;;;;;;;4978384;28;20046;-90
2022/07/21 14:11:08;;;;;;;0.00;0.00;;;;;;;;;;4978374;28;20375;-89
2022/07/21 14:13:34;;;;;;;0.00;0.00;;;;;;;;;;4978418;28;20061;-88
2022/07/21 14:16:01;;;;;;;0.00;0.00;;;;;;;;;;4978617;28;20157;-88
2022/07/21 14:18:27;;;;;;;0.00;0.00;;;;;;;;;;4978308;28;20089;-88
2022/07/21 14:20:53;;;;;;;0.00;0.00;;;;;;;;;;4962160;28;20038;-89
2022/07/21 14:23:20;;;;;;;0.00;0.00;;;;;;;;;;4981748;28;20042;-87
2022/07/21 14:25:47;;;;;;;0.00;0.00;;;;;;;;;;4978530;28;20081;-89
2022/07/21 14:28:13;;;;;;;0.00;0.00;;;;;;;;;;4977956;28;20494;-88
2022/07/21 14:30:38;;;;;;;0.00;0.00;;;;;;;;;;4978095;28;20126;-89
2022/07/21 14:33:04;;;;;;;0.00;0.00;;;;;;;;;;4978113;28;20042;-90
2022/07/21 14:35:31;;;;;;;0.00;0.00;;;;;;;;;;4978308;28;20491;-88
2022/07/21 14:37:57;;;;;;;0.00;0.00;;;;;;;;;;4977878;28;20056;-90
2022/07/21 14:40:23;;;;;;;0.00;0.00;;;;;;;;;;4977070;28;20125;-88
2022/07/21 14:42:51;;;;;;;0.00;0.00;;;;;;;;;;4977624;28;20041;-88
2022/07/21 14:45:18;;;;;;;0.00;0.00;;;;;;;;;;4978225;28;20103;-90
2022/07/21 14:47:46;;;;;;;0.00;0.00;;;;;;;;;;4977568;28;20041;-87